sensor_id;sensor_type;location;lat;lon;timestamp;P1;durP1;ratioP1;P2;durP2;ratioP2
57401;SDS011;43226;51.110;6.998;2023-07-20T00:00:14;2.73;;;2.07;;
57401;SDS011;43226;51.110;6.998;2023-07-20T00:02:39;2.73;;;2.00;;
57401;SDS011;43226;51.110;6.998;2023-07-20T00:05:04;2.07;;;1.90;;
57401;SDS011;43226;51.110;6.998;2023-07-20T00:07:30;4.73;;;2.27;;
57401;SDS011;43226;51.110;6.998;2023-07-20T00:09:55;3.00;;;2.23;;
57401;SDS011;43226;51.110;6.998;2023-07-20T00:12:20;4.93;;;2.72;;
57401;SDS011;43226;51.110;6.998;2023-07-20T00:14:45;5.37;;;2.60;;
57401;SDS011;43226;51.110;6.998;2023-07-20T00:17:11;6.27;;;2.10;;
57401;SDS011;43226;51.110;6.998;2023-07-20T00:19:36;4.90;;;2.50;;
57401;SDS011;43226;51.110;6.998;2023-07-20T00:22:01;7.27;;;2.80;;
57401;SDS011;43226;51.110;6.998;2023-07-20T00:24:26;3.67;;;2.27;;
57401;SDS011;43226;51.110;6.998;2023-07-20T00:26:52;4.23;;;2.57;;
57401;SDS011;43226;51.110;6.998;2023-07-20T00:29:17;4.03;;;2.63;;
57401;SDS011;43226;51.110;6.998;2023-07-20T00:31:42;4.07;;;2.43;;
57401;SDS011;43226;51.110;6.998;2023-07-20T00:34:08;2.63;;;2.43;;
57401;SDS011;43226;51.110;6.998;2023-07-20T00:36:33;7.13;;;2.47;;
57401;SDS011;43226;51.110;6.998;2023-07-20T00:38:59;9.43;;;2.93;;
57401;SDS011;43226;51.110;6.998;2023-07-20T00:41:24;2.20;;;2.00;;
57401;SDS011;43226;51.110;6.998;2023-07-20T00:43:49;4.93;;;2.63;;
57401;SDS011;43226;51.110;6.998;2023-07-20T00:46:15;4.00;;;2.67;;
57401;SDS011;43226;51.110;6.998;2023-07-20T00:48:40;6.10;;;2.83;;
57401;SDS011;43226;51.110;6.998;2023-07-20T00:51:06;3.07;;;2.00;;
57401;SDS011;43226;51.110;6.998;2023-07-20T00:53:31;5.03;;;2.43;;
57401;SDS011;43226;51.110;6.998;2023-07-20T00:55:57;5.03;;;2.77;;
57401;SDS011;43226;51.110;6.998;2023-07-20T00:58:22;6.87;;;2.40;;
57401;SDS011;43226;51.110;6.998;2023-07-20T01:00:48;3.07;;;2.60;;
57401;SDS011;43226;51.110;6.998;2023-07-20T01:03:13;4.67;;;1.90;;
57401;SDS011;43226;51.110;6.998;2023-07-20T01:08:12;5.43;;;2.30;;
57401;SDS011;43226;51.110;6.998;2023-07-20T01:10:46;2.97;;;2.33;;
57401;SDS011;43226;51.110;6.998;2023-07-20T01:13:15;3.20;;;2.03;;
57401;SDS011;43226;51.110;6.998;2023-07-20T01:15:42;4.77;;;2.13;;
57401;SDS011;43226;51.110;6.998;2023-07-20T01:18:13;3.23;;;2.87;;
57401;SDS011;43226;51.110;6.998;2023-07-20T01:20:38;9.20;;;3.00;;
57401;SDS011;43226;51.110;6.998;2023-07-20T01:23:18;3.43;;;2.50;;
57401;SDS011;43226;51.110;6.998;2023-07-20T01:25:55;3.47;;;2.67;;
57401;SDS011;43226;51.110;6.998;2023-07-20T01:28:35;4.80;;;2.77;;
57401;SDS011;43226;51.110;6.998;2023-07-20T01:31:19;3.60;;;2.20;;
57401;SDS011;43226;51.110;6.998;2023-07-20T01:33:46;3.17;;;2.53;;
57401;SDS011;43226;51.110;6.998;2023-07-20T01:36:12;7.07;;;3.10;;
57401;SDS011;43226;51.110;6.998;2023-07-20T01:38:38;4.07;;;2.70;;
57401;SDS011;43226;51.110;6.998;2023-07-20T01:41:03;2.27;;;1.97;;
57401;SDS011;43226;51.110;6.998;2023-07-20T01:43:30;3.23;;;2.37;;
57401;SDS011;43226;51.110;6.998;2023-07-20T01:45:55;4.43;;;2.60;;
57401;SDS011;43226;51.110;6.998;2023-07-20T01:48:20;3.23;;;2.63;;
57401;SDS011;43226;51.110;6.998;2023-07-20T01:50:45;3.13;;;2.50;;
57401;SDS011;43226;51.110;6.998;2023-07-20T01:53:11;2.80;;;2.60;;
57401;SDS011;43226;51.110;6.998;2023-07-20T01:55:36;5.80;;;3.30;;
57401;SDS011;43226;51.110;6.998;2023-07-20T01:58:01;2.60;;;2.30;;
57401;SDS011;43226;51.110;6.998;2023-07-20T02:00:27;3.50;;;2.43;;
57401;SDS011;43226;51.110;6.998;2023-07-20T02:02:52;4.20;;;2.07;;
57401;SDS011;43226;51.110;6.998;2023-07-20T02:05:17;5.37;;;2.83;;
57401;SDS011;43226;51.110;6.998;2023-07-20T02:07:42;2.40;;;2.10;;
57401;SDS011;43226;51.110;6.998;2023-07-20T02:10:07;4.30;;;2.30;;
57401;SDS011;43226;51.110;6.998;2023-07-20T02:12:33;5.87;;;2.60;;
57401;SDS011;43226;51.110;6.998;2023-07-20T02:14:58;6.00;;;2.43;;
57401;SDS011;43226;51.110;6.998;2023-07-20T02:17:23;6.23;;;2.30;;
57401;SDS011;43226;51.110;6.998;2023-07-20T02:19:55;5.63;;;2.83;;
57401;SDS011;43226;51.110;6.998;2023-07-20T02:22:21;6.27;;;2.80;;
57401;SDS011;43226;51.110;6.998;2023-07-20T02:24:46;3.33;;;2.40;;
57401;SDS011;43226;51.110;6.998;2023-07-20T02:27:11;4.43;;;2.57;;
57401;SDS011;43226;51.110;6.998;2023-07-20T02:29:36;4.10;;;3.07;;
57401;SDS011;43226;51.110;6.998;2023-07-20T02:32:02;6.20;;;2.60;;
57401;SDS011;43226;51.110;6.998;2023-07-20T02:34:27;5.60;;;2.87;;
57401;SDS011;43226;51.110;6.998;2023-07-20T02:36:52;3.73;;;2.30;;
57401;SDS011;43226;51.110;6.998;2023-07-20T02:39:18;6.73;;;2.70;;
57401;SDS011;43226;51.110;6.998;2023-07-20T02:41:43;5.00;;;2.87;;
57401;SDS011;43226;51.110;6.998;2023-07-20T02:44:08;3.80;;;2.57;;
57401;SDS011;43226;51.110;6.998;2023-07-20T02:46:33;6.00;;;2.70;;
57401;SDS011;43226;51.110;6.998;2023-07-20T02:49:00;3.40;;;2.70;;
57401;SDS011;43226;51.110;6.998;2023-07-20T02:51:25;8.10;;;3.63;;
57401;SDS011;43226;51.110;6.998;2023-07-20T02:53:50;4.10;;;3.07;;
57401;SDS011;43226;51.110;6.998;2023-07-20T02:56:15;3.80;;;2.80;;
57401;SDS011;43226;51.110;6.998;2023-07-20T02:58:41;2.87;;;2.17;;
57401;SDS011;43226;51.110;6.998;2023-07-20T03:01:10;7.47;;;2.97;;
57401;SDS011;43226;51.110;6.998;2023-07-20T03:03:37;4.40;;;2.70;;
57401;SDS011;43226;51.110;6.998;2023-07-20T03:06:04;3.43;;;2.50;;
57401;SDS011;43226;51.110;6.998;2023-07-20T03:08:29;4.63;;;3.10;;
57401;SDS011;43226;51.110;6.998;2023-07-20T03:10:55;4.30;;;2.87;;
57401;SDS011;43226;51.110;6.998;2023-07-20T03:13:20;4.20;;;2.80;;
57401;SDS011;43226;51.110;6.998;2023-07-20T03:15:45;9.43;;;2.40;;
57401;SDS011;43226;51.110;6.998;2023-07-20T03:18:10;4.97;;;2.40;;
57401;SDS011;43226;51.110;6.998;2023-07-20T03:20:35;5.10;;;3.20;;
57401;SDS011;43226;51.110;6.998;2023-07-20T03:23:01;6.97;;;3.40;;
57401;SDS011;43226;51.110;6.998;2023-07-20T03:25:27;3.93;;;2.83;;
57401;SDS011;43226;51.110;6.998;2023-07-20T03:27:52;7.77;;;3.00;;
57401;SDS011;43226;51.110;6.998;2023-07-20T03:30:17;4.00;;;2.63;;
57401;SDS011;43226;51.110;6.998;2023-07-20T03:32:43;3.27;;;2.80;;
57401;SDS011;43226;51.110;6.998;2023-07-20T03:35:08;3.53;;;2.63;;
57401;SDS011;43226;51.110;6.998;2023-07-20T03:37:33;8.00;;;4.10;;
57401;SDS011;43226;51.110;6.998;2023-07-20T03:40:00;6.70;;;2.80;;
57401;SDS011;43226;51.110;6.998;2023-07-20T03:42:25;3.03;;;2.73;;
57401;SDS011;43226;51.110;6.998;2023-07-20T03:44:51;4.53;;;3.17;;
57401;SDS011;43226;51.110;6.998;2023-07-20T03:47:16;7.63;;;3.23;;
57401;SDS011;43226;51.110;6.998;2023-07-20T03:49:41;3.93;;;3.07;;
57401;SDS011;43226;51.110;6.998;2023-07-20T03:52:07;4.17;;;2.60;;
57401;SDS011;43226;51.110;6.998;2023-07-20T03:54:32;4.77;;;2.83;;
57401;SDS011;43226;51.110;6.998;2023-07-20T03:56:57;6.07;;;2.50;;
57401;SDS011;43226;51.110;6.998;2023-07-20T03:59:23;5.50;;;2.73;;
57401;SDS011;43226;51.110;6.998;2023-07-20T04:01:48;4.07;;;2.90;;
57401;SDS011;43226;51.110;6.998;2023-07-20T04:04:15;3.67;;;2.50;;
57401;SDS011;43226;51.110;6.998;2023-07-20T04:06:40;4.53;;;2.80;;
57401;SDS011;43226;51.110;6.998;2023-07-20T04:09:05;4.40;;;2.83;;
57401;SDS011;43226;51.110;6.998;2023-07-20T04:11:31;6.17;;;2.90;;
57401;SDS011;43226;51.110;6.998;2023-07-20T04:13:56;7.20;;;3.63;;
57401;SDS011;43226;51.110;6.998;2023-07-20T04:16:21;3.80;;;2.50;;
57401;SDS011;43226;51.110;6.998;2023-07-20T04:18:46;5.73;;;3.53;;
57401;SDS011;43226;51.110;6.998;2023-07-20T04:21:12;5.70;;;2.60;;
57401;SDS011;43226;51.110;6.998;2023-07-20T04:23:37;7.40;;;3.37;;
57401;SDS011;43226;51.110;6.998;2023-07-20T04:26:02;3.20;;;2.50;;
57401;SDS011;43226;51.110;6.998;2023-07-20T04:28:27;4.60;;;3.23;;
57401;SDS011;43226;51.110;6.998;2023-07-20T04:30:52;5.50;;;3.10;;
57401;SDS011;43226;51.110;6.998;2023-07-20T04:33:18;4.70;;;3.27;;
57401;SDS011;43226;51.110;6.998;2023-07-20T04:35:47;3.03;;;2.73;;
57401;SDS011;43226;51.110;6.998;2023-07-20T04:38:13;7.00;;;3.07;;
57401;SDS011;43226;51.110;6.998;2023-07-20T04:40:40;5.23;;;3.30;;
57401;SDS011;43226;51.110;6.998;2023-07-20T04:43:05;5.90;;;3.47;;
57401;SDS011;43226;51.110;6.998;2023-07-20T04:45:30;11.00;;;3.80;;
57401;SDS011;43226;51.110;6.998;2023-07-20T04:47:56;7.90;;;3.73;;
57401;SDS011;43226;51.110;6.998;2023-07-20T04:50:22;3.87;;;3.13;;
57401;SDS011;43226;51.110;6.998;2023-07-20T04:52:49;8.20;;;3.00;;
57401;SDS011;43226;51.110;6.998;2023-07-20T04:55:14;7.50;;;3.73;;
57401;SDS011;43226;51.110;6.998;2023-07-20T04:57:39;4.40;;;3.63;;
57401;SDS011;43226;51.110;6.998;2023-07-20T05:00:05;8.00;;;4.17;;
57401;SDS011;43226;51.110;6.998;2023-07-20T05:02:31;6.30;;;3.70;;
57401;SDS011;43226;51.110;6.998;2023-07-20T05:04:56;5.78;;;2.90;;
57401;SDS011;43226;51.110;6.998;2023-07-20T05:07:21;3.47;;;3.15;;
57401;SDS011;43226;51.110;6.998;2023-07-20T05:09:46;6.43;;;3.73;;
57401;SDS011;43226;51.110;6.998;2023-07-20T05:12:11;7.87;;;4.03;;
57401;SDS011;43226;51.110;6.998;2023-07-20T05:14:37;9.00;;;3.90;;
57401;SDS011;43226;51.110;6.998;2023-07-20T05:17:03;4.67;;;3.53;;
57401;SDS011;43226;51.110;6.998;2023-07-20T05:19:28;8.57;;;4.07;;
57401;SDS011;43226;51.110;6.998;2023-07-20T05:21:53;7.10;;;4.70;;
57401;SDS011;43226;51.110;6.998;2023-07-20T05:24:18;8.03;;;3.97;;
57401;SDS011;43226;51.110;6.998;2023-07-20T05:26:43;10.57;;;4.13;;
57401;SDS011;43226;51.110;6.998;2023-07-20T05:29:09;10.13;;;4.77;;
57401;SDS011;43226;51.110;6.998;2023-07-20T05:31:34;5.37;;;4.27;;
57401;SDS011;43226;51.110;6.998;2023-07-20T05:33:59;10.67;;;4.97;;
57401;SDS011;43226;51.110;6.998;2023-07-20T05:36:24;8.00;;;5.37;;
57401;SDS011;43226;51.110;6.998;2023-07-20T05:38:49;8.60;;;5.67;;
57401;SDS011;43226;51.110;6.998;2023-07-20T05:41:14;10.50;;;5.27;;
57401;SDS011;43226;51.110;6.998;2023-07-20T05:43:40;8.33;;;4.60;;
57401;SDS011;43226;51.110;6.998;2023-07-20T05:46:07;7.23;;;5.30;;
57401;SDS011;43226;51.110;6.998;2023-07-20T05:48:32;6.67;;;4.80;;
57401;SDS011;43226;51.110;6.998;2023-07-20T05:50:57;7.13;;;5.60;;
57401;SDS011;43226;51.110;6.998;2023-07-20T05:53:23;10.20;;;6.17;;
57401;SDS011;43226;51.110;6.998;2023-07-20T05:55:54;6.70;;;4.67;;
57401;SDS011;43226;51.110;6.998;2023-07-20T05:58:19;8.90;;;5.10;;
57401;SDS011;43226;51.110;6.998;2023-07-20T06:00:47;13.13;;;5.20;;
57401;SDS011;43226;51.110;6.998;2023-07-20T06:03:12;7.20;;;5.53;;
57401;SDS011;43226;51.110;6.998;2023-07-20T06:05:37;8.00;;;5.67;;
57401;SDS011;43226;51.110;6.998;2023-07-20T06:08:02;8.33;;;5.43;;
57401;SDS011;43226;51.110;6.998;2023-07-20T06:10:28;10.63;;;6.17;;
57401;SDS011;43226;51.110;6.998;2023-07-20T06:12:53;8.50;;;5.67;;
57401;SDS011;43226;51.110;6.998;2023-07-20T06:15:24;11.83;;;5.70;;
57401;SDS011;43226;51.110;6.998;2023-07-20T06:17:50;10.70;;;5.70;;
57401;SDS011;43226;51.110;6.998;2023-07-20T06:20:15;6.47;;;5.80;;
57401;SDS011;43226;51.110;6.998;2023-07-20T06:22:40;9.07;;;5.87;;
57401;SDS011;43226;51.110;6.998;2023-07-20T06:25:05;8.73;;;5.90;;
57401;SDS011;43226;51.110;6.998;2023-07-20T06:27:31;11.10;;;7.47;;
57401;SDS011;43226;51.110;6.998;2023-07-20T06:29:56;8.50;;;5.80;;
57401;SDS011;43226;51.110;6.998;2023-07-20T06:32:21;8.50;;;6.20;;
57401;SDS011;43226;51.110;6.998;2023-07-20T06:34:47;7.10;;;5.30;;
57401;SDS011;43226;51.110;6.998;2023-07-20T06:37:12;8.70;;;6.00;;
57401;SDS011;43226;51.110;6.998;2023-07-20T06:39:37;15.20;;;7.73;;
57401;SDS011;43226;51.110;6.998;2023-07-20T06:42:02;7.73;;;6.10;;
57401;SDS011;43226;51.110;6.998;2023-07-20T06:44:28;11.00;;;6.90;;
57401;SDS011;43226;51.110;6.998;2023-07-20T06:46:53;10.83;;;7.00;;
57401;SDS011;43226;51.110;6.998;2023-07-20T06:49:25;12.93;;;7.23;;
57401;SDS011;43226;51.110;6.998;2023-07-20T06:51:51;13.57;;;7.27;;
57401;SDS011;43226;51.110;6.998;2023-07-20T06:54:16;8.73;;;6.73;;
57401;SDS011;43226;51.110;6.998;2023-07-20T06:56:41;9.80;;;7.10;;
57401;SDS011;43226;51.110;6.998;2023-07-20T06:59:06;10.20;;;6.53;;
57401;SDS011;43226;51.110;6.998;2023-07-20T07:01:31;8.60;;;6.30;;
57401;SDS011;43226;51.110;6.998;2023-07-20T07:03:57;13.33;;;6.23;;
57401;SDS011;43226;51.110;6.998;2023-07-20T07:06:22;13.60;;;6.57;;
57401;SDS011;43226;51.110;6.998;2023-07-20T07:08:47;9.57;;;6.70;;
57401;SDS011;43226;51.110;6.998;2023-07-20T07:11:12;14.73;;;6.00;;
57401;SDS011;43226;51.110;6.998;2023-07-20T07:13:38;8.67;;;5.97;;
57401;SDS011;43226;51.110;6.998;2023-07-20T07:16:03;7.68;;;5.65;;
57401;SDS011;43226;51.110;6.998;2023-07-20T07:18:28;8.13;;;5.40;;
57401;SDS011;43226;51.110;6.998;2023-07-20T07:20:54;9.07;;;5.47;;
57401;SDS011;43226;51.110;6.998;2023-07-20T07:23:19;6.57;;;4.90;;
57401;SDS011;43226;51.110;6.998;2023-07-20T07:25:45;10.23;;;5.37;;
57401;SDS011;43226;51.110;6.998;2023-07-20T07:28:10;5.60;;;4.93;;
57401;SDS011;43226;51.110;6.998;2023-07-20T07:30:35;9.10;;;6.17;;
57401;SDS011;43226;51.110;6.998;2023-07-20T07:33:01;6.67;;;5.83;;
57401;SDS011;43226;51.110;6.998;2023-07-20T07:35:26;6.50;;;5.37;;
57401;SDS011;43226;51.110;6.998;2023-07-20T07:37:51;9.47;;;5.63;;
57401;SDS011;43226;51.110;6.998;2023-07-20T07:40:16;7.13;;;5.30;;
57401;SDS011;43226;51.110;6.998;2023-07-20T07:42:41;10.80;;;6.30;;
57401;SDS011;43226;51.110;6.998;2023-07-20T07:45:07;9.40;;;5.97;;
57401;SDS011;43226;51.110;6.998;2023-07-20T07:47:32;7.70;;;5.20;;
57401;SDS011;43226;51.110;6.998;2023-07-20T07:49:58;8.47;;;5.30;;
57401;SDS011;43226;51.110;6.998;2023-07-20T07:52:23;6.50;;;4.87;;
57401;SDS011;43226;51.110;6.998;2023-07-20T07:54:48;5.50;;;3.93;;
57401;SDS011;43226;51.110;6.998;2023-07-20T07:57:13;5.20;;;3.57;;
57401;SDS011;43226;51.110;6.998;2023-07-20T07:59:39;6.60;;;3.17;;
57401;SDS011;43226;51.110;6.998;2023-07-20T08:02:04;2.50;;;2.30;;
57401;SDS011;43226;51.110;6.998;2023-07-20T08:04:30;2.50;;;1.93;;
57401;SDS011;43226;51.110;6.998;2023-07-20T08:06:55;3.80;;;2.47;;
57401;SDS011;43226;51.110;6.998;2023-07-20T08:09:21;2.40;;;2.20;;
57401;SDS011;43226;51.110;6.998;2023-07-20T08:11:46;2.27;;;2.07;;
57401;SDS011;43226;51.110;6.998;2023-07-20T08:14:12;3.63;;;1.90;;
57401;SDS011;43226;51.110;6.998;2023-07-20T08:16:37;2.93;;;2.60;;
57401;SDS011;43226;51.110;6.998;2023-07-20T08:19:02;4.60;;;2.70;;
57401;SDS011;43226;51.110;6.998;2023-07-20T08:21:28;4.47;;;3.20;;
57401;SDS011;43226;51.110;6.998;2023-07-20T08:23:53;2.30;;;2.10;;
57401;SDS011;43226;51.110;6.998;2023-07-20T08:26:18;3.63;;;2.70;;
57401;SDS011;43226;51.110;6.998;2023-07-20T08:28:47;2.63;;;2.20;;
57401;SDS011;43226;51.110;6.998;2023-07-20T08:31:13;5.10;;;2.40;;
57401;SDS011;43226;51.110;6.998;2023-07-20T08:33:38;2.63;;;2.43;;
57401;SDS011;43226;51.110;6.998;2023-07-20T08:36:03;2.60;;;1.60;;
57401;SDS011;43226;51.110;6.998;2023-07-20T08:38:28;1.93;;;1.77;;
57401;SDS011;43226;51.110;6.998;2023-07-20T08:40:54;2.13;;;1.70;;
57401;SDS011;43226;51.110;6.998;2023-07-20T08:43:20;3.87;;;1.73;;
57401;SDS011;43226;51.110;6.998;2023-07-20T08:45:48;4.47;;;1.40;;
57401;SDS011;43226;51.110;6.998;2023-07-20T08:48:14;3.27;;;1.60;;
57401;SDS011;43226;51.110;6.998;2023-07-20T08:50:40;1.87;;;1.73;;
57401;SDS011;43226;51.110;6.998;2023-07-20T08:53:06;1.47;;;1.37;;
57401;SDS011;43226;51.110;6.998;2023-07-20T08:55:31;1.40;;;1.10;;
57401;SDS011;43226;51.110;6.998;2023-07-20T08:57:58;1.30;;;1.10;;
57401;SDS011;43226;51.110;6.998;2023-07-20T09:00:23;1.17;;;1.07;;
57401;SDS011;43226;51.110;6.998;2023-07-20T09:02:50;2.80;;;1.20;;
57401;SDS011;43226;51.110;6.998;2023-07-20T09:05:16;1.40;;;1.30;;
57401;SDS011;43226;51.110;6.998;2023-07-20T09:07:42;1.27;;;1.17;;
57401;SDS011;43226;51.110;6.998;2023-07-20T09:10:07;1.20;;;1.10;;
57401;SDS011;43226;51.110;6.998;2023-07-20T09:12:36;2.40;;;1.33;;
57401;SDS011;43226;51.110;6.998;2023-07-20T09:15:02;5.33;;;2.17;;
57401;SDS011;43226;51.110;6.998;2023-07-20T09:17:27;1.80;;;1.63;;
57401;SDS011;43226;51.110;6.998;2023-07-20T09:19:52;1.30;;;1.20;;
57401;SDS011;43226;51.110;6.998;2023-07-20T09:22:17;1.30;;;1.20;;
57401;SDS011;43226;51.110;6.998;2023-07-20T09:24:43;1.87;;;1.50;;
57401;SDS011;43226;51.110;6.998;2023-07-20T09:27:08;2.70;;;1.40;;
57401;SDS011;43226;51.110;6.998;2023-07-20T09:29:34;1.73;;;1.63;;
57401;SDS011;43226;51.110;6.998;2023-07-20T09:32:00;1.90;;;1.33;;
57401;SDS011;43226;51.110;6.998;2023-07-20T09:34:26;2.07;;;1.20;;
57401;SDS011;43226;51.110;6.998;2023-07-20T09:36:51;1.77;;;1.40;;
57401;SDS011;43226;51.110;6.998;2023-07-20T09:39:17;2.23;;;1.50;;
57401;SDS011;43226;51.110;6.998;2023-07-20T09:41:42;2.27;;;1.50;;
57401;SDS011;43226;51.110;6.998;2023-07-20T09:44:07;1.83;;;1.50;;
57401;SDS011;43226;51.110;6.998;2023-07-20T09:46:48;1.77;;;1.37;;
57401;SDS011;43226;51.110;6.998;2023-07-20T09:49:13;1.93;;;1.57;;
57401;SDS011;43226;51.110;6.998;2023-07-20T09:51:39;1.70;;;1.60;;
57401;SDS011;43226;51.110;6.998;2023-07-20T09:54:04;1.77;;;1.37;;
57401;SDS011;43226;51.110;6.998;2023-07-20T09:56:30;1.60;;;1.30;;
57401;SDS011;43226;51.110;6.998;2023-07-20T09:58:56;4.60;;;1.60;;
57401;SDS011;43226;51.110;6.998;2023-07-20T10:01:21;1.50;;;1.40;;
57401;SDS011;43226;51.110;6.998;2023-07-20T10:03:47;1.77;;;1.33;;
57401;SDS011;43226;51.110;6.998;2023-07-20T10:06:13;1.13;;;1.03;;
57401;SDS011;43226;51.110;6.998;2023-07-20T10:08:40;1.60;;;1.50;;
57401;SDS011;43226;51.110;6.998;2023-07-20T10:11:06;5.40;;;1.80;;
57401;SDS011;43226;51.110;6.998;2023-07-20T10:13:32;3.93;;;1.50;;
57401;SDS011;43226;51.110;6.998;2023-07-20T10:16:03;2.90;;;1.63;;
57401;SDS011;43226;51.110;6.998;2023-07-20T10:18:31;3.23;;;1.53;;
57401;SDS011;43226;51.110;6.998;2023-07-20T10:20:59;1.67;;;1.57;;
57401;SDS011;43226;51.110;6.998;2023-07-20T10:23:26;1.70;;;1.50;;
57401;SDS011;43226;51.110;6.998;2023-07-20T10:25:51;1.30;;;1.20;;
57401;SDS011;43226;51.110;6.998;2023-07-20T10:28:17;1.30;;;1.20;;
57401;SDS011;43226;51.110;6.998;2023-07-20T10:30:42;2.33;;;0.90;;
57401;SDS011;43226;51.110;6.998;2023-07-20T10:33:08;1.20;;;0.90;;
57401;SDS011;43226;51.110;6.998;2023-07-20T10:35:53;1.20;;;1.10;;
57401;SDS011;43226;51.110;6.998;2023-07-20T10:38:18;0.80;;;0.80;;
57401;SDS011;43226;51.110;6.998;2023-07-20T10:40:43;3.53;;;1.37;;
57401;SDS011;43226;51.110;6.998;2023-07-20T10:43:18;1.13;;;1.07;;
57401;SDS011;43226;51.110;6.998;2023-07-20T10:45:51;1.50;;;1.20;;
57401;SDS011;43226;51.110;6.998;2023-07-20T10:48:20;1.53;;;1.20;;
57401;SDS011;43226;51.110;6.998;2023-07-20T10:50:48;3.27;;;1.20;;
57401;SDS011;43226;51.110;6.998;2023-07-20T10:53:31;1.87;;;1.30;;
57401;SDS011;43226;51.110;6.998;2023-07-20T10:56:15;1.30;;;1.20;;
57401;SDS011;43226;51.110;6.998;2023-07-20T10:58:40;1.30;;;1.20;;
57401;SDS011;43226;51.110;6.998;2023-07-20T11:01:09;1.50;;;1.40;;
57401;SDS011;43226;51.110;6.998;2023-07-20T11:03:38;1.50;;;1.40;;
57401;SDS011;43226;51.110;6.998;2023-07-20T11:06:29;4.90;;;1.80;;
57401;SDS011;43226;51.110;6.998;2023-07-20T11:08:55;1.57;;;1.47;;
57401;SDS011;43226;51.110;6.998;2023-07-20T11:11:21;1.30;;;1.20;;
57401;SDS011;43226;51.110;6.998;2023-07-20T11:13:53;2.73;;;0.90;;
57401;SDS011;43226;51.110;6.998;2023-07-20T11:16:19;1.10;;;0.90;;
57401;SDS011;43226;51.110;6.998;2023-07-20T11:18:44;2.33;;;1.50;;
57401;SDS011;43226;51.110;6.998;2023-07-20T11:21:10;1.40;;;1.30;;
57401;SDS011;43226;51.110;6.998;2023-07-20T11:23:37;2.97;;;1.53;;
57401;SDS011;43226;51.110;6.998;2023-07-20T11:26:02;1.53;;;1.37;;
57401;SDS011;43226;51.110;6.998;2023-07-20T11:28:29;1.30;;;1.20;;
57401;SDS011;43226;51.110;6.998;2023-07-20T11:30:55;1.50;;;1.40;;
57401;SDS011;43226;51.110;6.998;2023-07-20T11:33:20;3.23;;;1.50;;
57401;SDS011;43226;51.110;6.998;2023-07-20T11:35:45;3.70;;;1.17;;
57401;SDS011;43226;51.110;6.998;2023-07-20T11:38:14;1.10;;;1.00;;
57401;SDS011;43226;51.110;6.998;2023-07-20T11:40:45;1.33;;;1.13;;
57401;SDS011;43226;51.110;6.998;2023-07-20T11:43:11;2.03;;;0.87;;
57401;SDS011;43226;51.110;6.998;2023-07-20T11:45:37;0.90;;;0.90;;
57401;SDS011;43226;51.110;6.998;2023-07-20T11:48:02;1.00;;;0.90;;
57401;SDS011;43226;51.110;6.998;2023-07-20T11:50:27;1.93;;;1.10;;
57401;SDS011;43226;51.110;6.998;2023-07-20T11:52:53;1.57;;;1.10;;
57401;SDS011;43226;51.110;6.998;2023-07-20T11:55:19;0.97;;;0.97;;
57401;SDS011;43226;51.110;6.998;2023-07-20T11:58:00;1.87;;;1.10;;
57401;SDS011;43226;51.110;6.998;2023-07-20T12:00:25;0.80;;;0.80;;
57401;SDS011;43226;51.110;6.998;2023-07-20T12:02:50;2.40;;;0.90;;
57401;SDS011;43226;51.110;6.998;2023-07-20T12:05:18;1.30;;;1.10;;
57401;SDS011;43226;51.110;6.998;2023-07-20T12:07:44;1.10;;;1.00;;
57401;SDS011;43226;51.110;6.998;2023-07-20T12:10:11;2.77;;;1.27;;
57401;SDS011;43226;51.110;6.998;2023-07-20T12:12:40;1.20;;;1.00;;
57401;SDS011;43226;51.110;6.998;2023-07-20T12:15:13;1.10;;;1.00;;
57401;SDS011;43226;51.110;6.998;2023-07-20T12:17:42;2.13;;;0.90;;
57401;SDS011;43226;51.110;6.998;2023-07-20T12:20:09;1.10;;;1.00;;
57401;SDS011;43226;51.110;6.998;2023-07-20T12:22:42;1.30;;;0.73;;
57401;SDS011;43226;51.110;6.998;2023-07-20T12:25:08;1.40;;;1.10;;
57401;SDS011;43226;51.110;6.998;2023-07-20T12:27:35;4.40;;;0.97;;
57401;SDS011;43226;51.110;6.998;2023-07-20T12:30:01;0.80;;;0.80;;
57401;SDS011;43226;51.110;6.998;2023-07-20T12:32:26;1.00;;;0.90;;
57401;SDS011;43226;51.110;6.998;2023-07-20T12:34:51;5.27;;;0.93;;
57401;SDS011;43226;51.110;6.998;2023-07-20T12:37:17;2.17;;;1.10;;
57401;SDS011;43226;51.110;6.998;2023-07-20T12:39:43;0.90;;;0.90;;
57401;SDS011;43226;51.110;6.998;2023-07-20T12:42:11;0.80;;;0.80;;
57401;SDS011;43226;51.110;6.998;2023-07-20T12:44:37;1.10;;;1.00;;
57401;SDS011;43226;51.110;6.998;2023-07-20T12:47:02;0.80;;;0.80;;
57401;SDS011;43226;51.110;6.998;2023-07-20T12:49:27;2.03;;;1.00;;
57401;SDS011;43226;51.110;6.998;2023-07-20T12:51:52;0.93;;;0.90;;
57401;SDS011;43226;51.110;6.998;2023-07-20T12:54:17;0.90;;;0.80;;
57401;SDS011;43226;51.110;6.998;2023-07-20T12:56:43;0.80;;;0.80;;
57401;SDS011;43226;51.110;6.998;2023-07-20T12:59:08;1.00;;;0.90;;
57401;SDS011;43226;51.110;6.998;2023-07-20T13:01:33;0.83;;;0.80;;
57401;SDS011;43226;51.110;6.998;2023-07-20T13:03:58;0.80;;;0.80;;
57401;SDS011;43226;51.110;6.998;2023-07-20T13:06:24;1.10;;;1.00;;
57401;SDS011;43226;51.110;6.998;2023-07-20T13:08:49;2.10;;;0.90;;
57401;SDS011;43226;51.110;6.998;2023-07-20T13:11:15;1.00;;;0.90;;
57401;SDS011;43226;51.110;6.998;2023-07-20T13:13:41;0.90;;;0.90;;
57401;SDS011;43226;51.110;6.998;2023-07-20T13:16:06;4.00;;;1.10;;
57401;SDS011;43226;51.110;6.998;2023-07-20T13:18:31;1.43;;;1.00;;
57401;SDS011;43226;51.110;6.998;2023-07-20T13:20:57;1.40;;;1.00;;
57401;SDS011;43226;51.110;6.998;2023-07-20T13:23:22;1.30;;;1.00;;
57401;SDS011;43226;51.110;6.998;2023-07-20T13:25:47;1.50;;;1.00;;
57401;SDS011;43226;51.110;6.998;2023-07-20T13:28:12;1.70;;;1.07;;
57401;SDS011;43226;51.110;6.998;2023-07-20T13:30:38;1.57;;;1.17;;
57401;SDS011;43226;51.110;6.998;2023-07-20T13:33:03;1.77;;;1.37;;
57401;SDS011;43226;51.110;6.998;2023-07-20T13:35:28;1.40;;;1.30;;
57401;SDS011;43226;51.110;6.998;2023-07-20T13:37:53;1.53;;;1.03;;
57401;SDS011;43226;51.110;6.998;2023-07-20T13:40:19;1.03;;;0.90;;
57401;SDS011;43226;51.110;6.998;2023-07-20T13:42:44;2.30;;;1.30;;
57401;SDS011;43226;51.110;6.998;2023-07-20T13:45:10;1.10;;;1.00;;
57401;SDS011;43226;51.110;6.998;2023-07-20T13:47:35;1.00;;;0.93;;
57401;SDS011;43226;51.110;6.998;2023-07-20T13:50:00;1.50;;;1.40;;
57401;SDS011;43226;51.110;6.998;2023-07-20T13:52:26;1.40;;;0.90;;
57401;SDS011;43226;51.110;6.998;2023-07-20T13:54:51;0.87;;;0.87;;
57401;SDS011;43226;51.110;6.998;2023-07-20T13:57:16;1.00;;;0.90;;
57401;SDS011;43226;51.110;6.998;2023-07-20T13:59:42;1.20;;;1.10;;
57401;SDS011;43226;51.110;6.998;2023-07-20T14:02:07;2.00;;;1.00;;
57401;SDS011;43226;51.110;6.998;2023-07-20T14:04:32;1.63;;;0.83;;
57401;SDS011;43226;51.110;6.998;2023-07-20T14:06:57;1.20;;;1.00;;
57401;SDS011;43226;51.110;6.998;2023-07-20T14:09:22;1.47;;;0.90;;
57401;SDS011;43226;51.110;6.998;2023-07-20T14:11:48;2.20;;;1.10;;
57401;SDS011;43226;51.110;6.998;2023-07-20T14:14:13;0.90;;;0.80;;
57401;SDS011;43226;51.110;6.998;2023-07-20T14:16:38;1.10;;;1.00;;
57401;SDS011;43226;51.110;6.998;2023-07-20T14:19:03;3.80;;;1.00;;
57401;SDS011;43226;51.110;6.998;2023-07-20T14:21:30;0.93;;;0.80;;
57401;SDS011;43226;51.110;6.998;2023-07-20T14:23:56;1.07;;;0.90;;
57401;SDS011;43226;51.110;6.998;2023-07-20T14:26:22;1.00;;;0.90;;
57401;SDS011;43226;51.110;6.998;2023-07-20T14:28:48;1.43;;;1.10;;
57401;SDS011;43226;51.110;6.998;2023-07-20T14:31:13;1.27;;;0.93;;
57401;SDS011;43226;51.110;6.998;2023-07-20T14:33:38;2.70;;;1.10;;
57401;SDS011;43226;51.110;6.998;2023-07-20T14:36:04;1.43;;;1.10;;
57401;SDS011;43226;51.110;6.998;2023-07-20T14:38:30;1.17;;;0.90;;
57401;SDS011;43226;51.110;6.998;2023-07-20T14:40:55;1.43;;;0.90;;
57401;SDS011;43226;51.110;6.998;2023-07-20T14:43:21;1.47;;;1.20;;